Time;durP1;ratioP1;P1;durP2;ratioP2;P2;SDS_P1;SDS_P2;PMS_P1;PMS_P2;Temp;Humidity;BMP_temperature;BMP_pressure;BME280_temperature;BME280_humidity;BME280_pressure;Samples;Min_cycle;Max_cycle;Signal;HPM_P1;HPM_P2
2023/08/06 00:01:12;;;;;;;5.07;3.28;;;;;;;15.71;100.00;99981.31;5017780;28;20800;-65
2023/08/06 00:03:37;;;;;;;6.90;3.70;;;;;;;15.62;100.00;99979.06;5018131;28;20040;-65
2023/08/06 00:06:05;;;;;;;5.55;4.32;;;;;;;15.57;100.00;99978.41;5017366;28;20051;-65
2023/08/06 00:08:31;;;;;;;6.20;4.25;;;;;;;15.53;100.00;99976.84;5026778;28;20061;-65
2023/08/06 00:10:56;;;;;;;5.38;4.03;;;;;;;15.51;100.00;99976.06;5015884;28;20452;-65
2023/08/06 00:13:21;;;;;;;6.50;4.05;;;;;;;15.45;100.00;99981.50;5011741;28;20057;-65
2023/08/06 00:15:47;;;;;;;7.53;4.65;;;;;;;15.40;100.00;99980.88;5020628;28;20663;-65
2023/08/06 00:18:12;;;;;;;7.65;4.13;;;;;;;15.35;100.00;99988.00;5020867;28;20104;-65
2023/08/06 00:20:41;;;;;;;6.30;3.95;;;;;;;15.31;100.00;99992.50;5014827;28;20053;-65
2023/08/06 00:23:07;;;;;;;5.97;3.83;;;;;;;15.26;100.00;99990.97;5012684;28;20030;-65
2023/08/06 00:25:32;;;;;;;7.60;4.45;;;;;;;15.23;100.00;100004.94;5010240;28;20041;-65
2023/08/06 00:27:57;;;;;;;6.13;4.03;;;;;;;15.21;100.00;100005.03;5010776;28;20134;-65
2023/08/06 00:30:23;;;;;;;6.97;4.68;;;;;;;15.25;100.00;99997.09;5015036;28;20120;-65
2023/08/06 00:32:48;;;;;;;7.07;4.38;;;;;;;15.33;100.00;100001.09;5009990;28;20060;-64
2023/08/06 00:35:14;;;;;;;8.25;4.43;;;;;;;15.48;100.00;100000.47;5017113;28;20099;-64
2023/08/06 00:37:39;;;;;;;7.20;4.45;;;;;;;15.57;100.00;99991.44;5020988;28;20029;-65
2023/08/06 00:40:07;;;;;;;6.72;4.55;;;;;;;15.65;100.00;99992.84;5016733;28;20045;-65
2023/08/06 00:42:34;;;;;;;7.05;4.28;;;;;;;15.67;100.00;99993.63;5011360;28;20590;-65
2023/08/06 00:44:59;;;;;;;6.13;4.57;;;;;;;15.68;100.00;99990.13;5001085;28;20037;-64
2023/08/06 00:47:25;;;;;;;6.88;4.60;;;;;;;15.71;100.00;99982.16;5016207;28;20110;-64
2023/08/06 00:49:50;;;;;;;6.78;4.32;;;;;;;15.72;100.00;99977.81;5009809;28;20033;-64
2023/08/06 00:52:16;;;;;;;7.93;4.40;;;;;;;15.72;100.00;99980.41;5014636;28;20052;-64
2023/08/06 00:54:41;;;;;;;8.13;3.97;;;;;;;15.77;100.00;99978.47;5016013;28;20037;-64
2023/08/06 00:57:08;;;;;;;8.77;4.50;;;;;;;15.79;100.00;99970.59;5010122;28;20034;-64
2023/08/06 00:59:34;;;;;;;5.72;3.88;;;;;;;15.81;100.00;99977.44;5017417;28;20128;-65
2023/08/06 01:01:59;;;;;;;6.75;4.57;;;;;;;15.85;100.00;99967.72;5016610;28;20908;-64
2023/08/06 01:04:25;;;;;;;5.97;4.30;;;;;;;15.86;100.00;99966.78;5014290;28;20458;-65
2023/08/06 01:07:01;;;;;;;6.80;4.15;;;;;;;15.86;100.00;99967.66;5011335;28;20037;-64
2023/08/06 01:09:42;;;;;;;5.22;4.10;;;;;;;15.87;100.00;99963.28;5011034;28;20072;-64
2023/08/06 01:12:17;;;;;;;5.78;3.92;;;;;;;15.84;100.00;99958.22;5017561;28;20052;-64
2023/08/06 01:15:06;;;;;;;7.45;4.25;;;;;;;15.87;100.00;99956.31;5009636;28;20029;-64
2023/08/06 01:17:31;;;;;;;5.75;4.35;;;;;;;15.86;100.00;99957.22;5017076;28;20038;-64
2023/08/06 01:19:57;;;;;;;5.75;4.03;;;;;;;15.82;100.00;99960.84;5019918;28;20032;-64
2023/08/06 01:22:22;;;;;;;4.95;3.63;;;;;;;15.82;100.00;99953.03;5016771;28;20033;-64
2023/08/06 01:24:50;;;;;;;6.68;3.70;;;;;;;15.79;100.00;99953.16;4996604;28;20045;-64
2023/08/06 01:27:43;;;;;;;5.57;3.58;;;;;;;15.81;100.00;99947.91;5016236;28;20671;-64
2023/08/06 01:30:17;;;;;;;5.82;3.70;;;;;;;15.79;100.00;99953.16;5013847;28;20527;-63
2023/08/06 01:32:46;;;;;;;4.90;3.50;;;;;;;15.78;100.00;99950.66;5013215;28;20034;-63
2023/08/06 01:35:13;;;;;;;4.93;3.38;;;;;;;15.73;100.00;99941.25;5013312;28;20030;-63
2023/08/06 01:37:40;;;;;;;8.27;3.75;;;;;;;15.67;100.00;99948.50;5011854;28;20025;-63
2023/08/06 01:40:14;;;;;;;6.90;3.78;;;;;;;15.65;100.00;99938.13;5013210;28;20772;-63
2023/08/06 01:42:40;;;;;;;7.32;3.60;;;;;;;15.61;100.00;99940.91;5009908;28;20065;-63
2023/08/06 01:45:07;;;;;;;6.57;4.15;;;;;;;15.62;100.00;99934.78;5012141;28;20132;-63
2023/08/06 01:47:33;;;;;;;4.05;2.88;;;;;;;15.62;100.00;99937.38;5017475;28;20763;-63
2023/08/06 01:49:58;;;;;;;4.65;3.20;;;;;;;15.63;100.00;99929.56;5017787;28;20028;-63
2023/08/06 01:52:24;;;;;;;6.35;3.80;;;;;;;15.63;100.00;99928.69;5014998;28;20045;-63
2023/08/06 01:54:49;;;;;;;4.20;3.03;;;;;;;15.62;100.00;99929.56;5012782;28;20937;-63
2023/08/06 01:57:14;;;;;;;5.97;3.45;;;;;;;15.61;100.00;99922.69;5016552;28;20045;-63
2023/08/06 01:59:40;;;;;;;4.90;3.38;;;;;;;15.61;100.00;99915.69;5014090;28;20546;-63
2023/08/06 02:02:05;;;;;;;4.00;3.22;;;;;;;15.63;100.00;99918.28;5020571;28;20660;-63
2023/08/06 02:04:30;;;;;;;4.85;3.17;;;;;;;15.61;100.00;99922.69;5019444;28;20264;-63
2023/08/06 02:06:56;;;;;;;5.88;3.13;;;;;;;15.61;100.00;99910.47;5012441;28;20069;-63
2023/08/06 02:09:21;;;;;;;5.40;2.95;;;;;;;15.61;100.00;99912.25;5014671;28;20569;-63
2023/08/06 02:11:46;;;;;;;4.80;2.85;;;;;;;15.61;100.00;99907.06;5013756;28;20138;-63
2023/08/06 02:14:12;;;;;;;4.20;2.80;;;;;;;15.61;100.00;99910.47;5002590;28;20034;-63
2023/08/06 02:16:37;;;;;;;5.30;3.13;;;;;;;15.60;100.00;99905.34;5018829;28;20088;-63
2023/08/06 02:19:02;;;;;;;6.63;3.28;;;;;;;15.57;100.00;99906.34;5015875;28;20744;-62
2023/08/06 02:21:28;;;;;;;5.13;3.33;;;;;;;15.59;100.00;99898.44;5018584;28;20072;-62
2023/08/06 02:23:53;;;;;;;4.10;2.53;;;;;;;15.66;100.00;99905.13;5011339;28;20072;-63
2023/08/06 02:26:19;;;;;;;8.60;3.40;;;;;;;15.67;100.00;99902.44;5018624;28;20550;-62
2023/08/06 02:28:44;;;;;;;4.38;2.72;;;;;;;15.66;100.00;99903.38;4999965;28;20180;-62
2023/08/06 02:31:09;;;;;;;5.57;2.67;;;;;;;15.70;100.00;99906.69;5014312;28;20041;-63
2023/08/06 02:33:35;;;;;;;4.72;2.63;;;;;;;15.71;100.00;99906.63;5014557;28;20037;-62
2023/08/06 02:36:04;;;;;;;7.35;3.05;;;;;;;15.71;100.00;99896.19;5020113;28;20096;-63
2023/08/06 02:38:30;;;;;;;4.85;2.90;;;;;;;15.74;100.00;99900.41;5020461;28;20037;-62
2023/08/06 02:40:55;;;;;;;7.30;3.13;;;;;;;15.74;100.00;99893.44;5012233;28;20564;-63
2023/08/06 02:43:21;;;;;;;6.32;3.60;;;;;;;15.73;100.00;99893.53;5017135;28;20057;-63
2023/08/06 02:45:46;;;;;;;6.95;3.40;;;;;;;15.73;100.00;99894.34;5015667;28;20045;-63
2023/08/06 02:48:11;;;;;;;6.15;3.70;;;;;;;15.73;100.00;99886.53;5011227;28;20084;-62
2023/08/06 02:50:40;;;;;;;5.28;3.20;;;;;;;15.74;100.00;99893.44;5019147;28;20124;-62
2023/08/06 02:53:09;;;;;;;5.93;3.50;;;;;;;15.76;100.00;99883.81;5016467;28;20652;-66
2023/08/06 02:55:35;;;;;;;3.72;3.15;;;;;;;15.75;100.00;99884.75;5012465;28;20042;-66
2023/08/06 02:58:01;;;;;;;5.68;3.40;;;;;;;15.73;100.00;99881.34;5015182;28;20034;-65
2023/08/06 03:00:27;;;;;;;6.65;3.85;;;;;;;15.70;100.00;99876.25;5017363;28;20064;-66
2023/08/06 03:02:53;;;;;;;4.68;3.83;;;;;;;15.67;100.00;99876.38;5015681;28;20029;-66
2023/08/06 03:05:18;;;;;;;6.65;4.03;;;;;;;15.62;100.00;99874.84;5018353;28;20029;-66
2023/08/06 03:07:43;;;;;;;8.35;3.47;;;;;;;15.60;100.00;99868.88;5015468;28;20029;-66
2023/08/06 03:10:09;;;;;;;6.35;3.47;;;;;;;15.59;100.00;99867.19;5008308;28;20037;-66
2023/08/06 03:12:34;;;;;;;6.03;3.60;;;;;;;15.53;100.00;99864.84;5019667;28;20090;-66
2023/08/06 03:15:00;;;;;;;7.93;3.92;;;;;;;15.48;100.00;99865.03;5007234;28;20438;-66
2023/08/06 03:17:25;;;;;;;5.43;3.35;;;;;;;15.44;100.00;99858.25;5010590;28;20048;-66
2023/08/06 03:19:50;;;;;;;4.90;2.90;;;;;;;15.41;100.00;99860.16;5016057;28;20287;-67
2023/08/06 03:22:16;;;;;;;4.45;2.88;;;;;;;15.41;100.00;99861.00;5016107;28;20073;-67
2023/08/06 03:24:41;;;;;;;8.05;3.25;;;;;;;15.41;100.00;99854.94;5009945;28;20064;-66
2023/08/06 03:27:06;;;;;;;3.63;2.78;;;;;;;15.41;100.00;99854.94;5014840;28;20044;-67
2023/08/06 03:29:32;;;;;;;7.68;3.28;;;;;;;15.38;100.00;99848.09;5014927;28;20049;-66
2023/08/06 03:31:57;;;;;;;4.30;3.22;;;;;;;15.36;100.00;99849.09;5011984;28;20037;-67
2023/08/06 03:34:22;;;;;;;4.97;2.90;;;;;;;15.35;100.00;99852.59;5009959;28;20047;-67
2023/08/06 03:36:48;;;;;;;6.18;3.20;;;;;;;15.34;100.00;99843.97;5012698;28;20084;-66
2023/08/06 03:39:13;;;;;;;7.50;3.85;;;;;;;15.35;100.00;99853.44;5012576;28;20569;-66
2023/08/06 03:41:39;;;;;;;6.97;3.60;;;;;;;15.34;100.00;99850.91;5014857;28;20696;-66
2023/08/06 03:44:04;;;;;;;6.97;3.90;;;;;;;15.33;100.00;99842.25;5012516;28;20482;-66
2023/08/06 03:46:33;;;;;;;4.88;2.83;;;;;;;15.34;100.00;99843.09;5016125;28;20037;-66
2023/08/06 03:48:59;;;;;;;12.68;4.00;;;;;;;15.32;100.00;99840.56;5024206;28;20409;-66
2023/08/06 03:51:24;;;;;;;5.40;3.45;;;;;;;15.34;100.00;99846.56;5005939;28;20038;-65
2023/08/06 03:53:49;;;;;;;6.68;4.03;;;;;;;15.36;100.00;99842.13;5000390;28;20089;-67
2023/08/06 03:56:15;;;;;;;5.43;3.53;;;;;;;15.37;100.00;99840.38;5010388;28;20614;-66
2023/08/06 03:58:40;;;;;;;6.15;3.80;;;;;;;15.39;100.00;99836.78;5014588;28;20025;-66
2023/08/06 04:01:05;;;;;;;7.82;3.75;;;;;;;15.39;100.00;99842.00;5017941;28;20640;-67
2023/08/06 04:03:30;;;;;;;6.00;3.80;;;;;;;15.39;100.00;99839.38;5013355;28;20050;-65
2023/08/06 04:05:56;;;;;;;5.40;3.53;;;;;;;15.38;100.00;99842.91;5015739;28;20674;-66
2023/08/06 04:08:21;;;;;;;9.82;3.88;;;;;;;15.41;100.00;99842.75;5013817;28;20033;-66
2023/08/06 04:10:52;;;;;;;6.45;3.70;;;;;;;15.43;100.00;99847.94;5021692;28;20025;-66
2023/08/06 04:13:17;;;;;;;5.35;3.42;;;;;;;15.42;100.00;99844.47;5018393;28;20049;-66
2023/08/06 04:15:42;;;;;;;5.60;3.60;;;;;;;15.40;100.00;99851.50;5012459;28;20052;-67
2023/08/06 04:18:08;;;;;;;6.47;3.47;;;;;;;15.41;100.00;99840.16;5017139;28;20470;-67
2023/08/06 04:20:33;;;;;;;6.13;3.55;;;;;;;15.40;100.00;99846.31;5014681;28;20048;-67
2023/08/06 04:22:58;;;;;;;5.97;3.40;;;;;;;15.39;100.00;99843.75;5012917;28;20029;-67
2023/08/06 04:25:24;;;;;;;7.40;3.83;;;;;;;15.39;100.00;99841.16;5016275;28;20573;-67
2023/08/06 04:27:49;;;;;;;6.82;3.42;;;;;;;15.41;100.00;99845.38;5018902;28;20039;-67
2023/08/06 04:30:15;;;;;;;11.38;3.83;;;;;;;15.42;100.00;99839.25;5016390;28;20057;-67
2023/08/06 04:32:42;;;;;;;6.38;3.38;;;;;;;15.42;100.00;99838.41;5011103;28;20045;-67
2023/08/06 04:35:07;;;;;;;7.13;3.80;;;;;;;15.42;100.00;99839.25;5017187;28;20406;-67
2023/08/06 04:37:32;;;;;;;4.88;3.45;;;;;;;15.41;100.00;99844.53;5023860;28;20034;-67
2023/08/06 04:39:58;;;;;;;7.25;3.15;;;;;;;15.41;100.00;99840.16;5013276;28;20068;-67
2023/08/06 04:42:23;;;;;;;6.72;3.63;;;;;;;15.42;100.00;99834.06;5017412;28;20119;-67
2023/08/06 04:44:49;;;;;;;5.22;3.50;;;;;;;15.45;100.00;99838.28;5012468;28;20795;-67
2023/08/06 04:47:14;;;;;;;15.13;4.20;;;;;;;15.46;100.00;99835.63;5015369;28;20112;-67
2023/08/06 04:49:39;;;;;;;4.07;2.90;;;;;;;15.49;100.00;99832.88;5015913;28;20041;-67
2023/08/06 04:52:05;;;;;;;9.15;3.67;;;;;;;15.51;100.00;99833.66;5016306;28;20033;-67
2023/08/06 04:54:30;;;;;;;6.47;2.92;;;;;;;15.54;100.00;99843.09;5022459;28;20048;-67
2023/08/06 04:56:56;;;;;;;4.68;2.90;;;;;;;15.57;100.00;99840.34;5017416;28;20425;-67
2023/08/06 04:59:21;;;;;;;5.45;3.05;;;;;;;15.63;100.00;99840.13;5019503;28;20125;-67
2023/08/06 05:01:46;;;;;;;8.05;2.70;;;;;;;15.64;100.00;99837.44;5015919;28;20034;-68
2023/08/06 05:04:11;;;;;;;5.78;2.70;;;;;;;15.70;100.00;99844.97;5012341;28;20052;-67
2023/08/06 05:06:41;;;;;;;8.45;3.00;;;;;;;15.74;100.00;99843.09;5011487;28;20072;-67
2023/08/06 05:09:06;;;;;;;4.57;2.22;;;;;;;15.75;100.00;99839.59;5018268;28;20045;-68
2023/08/06 05:11:31;;;;;;;4.30;2.65;;;;;;;15.80;100.00;99837.63;5009604;28;20737;-68
2023/08/06 05:13:57;;;;;;;5.25;3.28;;;;;;;15.81;100.00;99836.72;5013966;28;20037;-67
2023/08/06 05:16:22;;;;;;;4.97;2.60;;;;;;;15.78;100.00;99838.59;5020416;28;20048;-68
2023/08/06 05:18:48;;;;;;;4.07;2.40;;;;;;;15.78;100.00;99843.81;5023847;28;20037;-68
2023/08/06 05:21:13;;;;;;;6.07;2.70;;;;;;;15.79;100.00;99842.91;5016598;28;20715;-68
2023/08/06 05:23:38;;;;;;;7.47;2.55;;;;;;;15.76;100.00;99839.50;5015321;28;20767;-68
2023/08/06 05:26:04;;;;;;;4.88;2.85;;;;;;;15.84;100.00;99846.16;5018777;28;20457;-68
2023/08/06 05:28:29;;;;;;;7.00;3.08;;;;;;;15.91;100.00;99851.00;5018019;28;20819;-69
2023/08/06 05:30:54;;;;;;;5.60;2.13;;;;;;;15.98;100.00;99849.84;5002290;28;20041;-69
2023/08/06 05:33:20;;;;;;;4.47;2.53;;;;;;;15.98;100.00;99848.97;5013279;28;20870;-68
2023/08/06 05:35:45;;;;;;;3.55;2.05;;;;;;;16.05;100.00;99858.22;5011728;28;20034;-69
2023/08/06 05:38:10;;;;;;;3.03;2.10;;;;;;;16.02;100.00;99855.75;5010937;28;20037;-68
2023/08/06 05:40:36;;;;;;;3.63;2.40;;;;;;;16.01;100.00;99857.50;5018770;28;21117;-69
2023/08/06 05:43:01;;;;;;;5.22;2.20;;;;;;;16.01;100.00;99860.13;5015279;28;20039;-69
2023/08/06 05:45:27;;;;;;;3.42;2.28;;;;;;;15.98;100.00;99856.78;5010994;28;20051;-69
2023/08/06 05:47:54;;;;;;;4.68;2.17;;;;;;;15.97;100.00;99860.34;5011747;28;20034;-69
2023/08/06 05:50:19;;;;;;;4.85;1.80;;;;;;;15.99;100.00;99868.94;5013230;28;20040;-69
2023/08/06 05:52:44;;;;;;;3.38;2.25;;;;;;;15.97;100.00;99863.78;5012468;28;20026;-69
2023/08/06 05:55:10;;;;;;;6.38;2.08;;;;;;;16.00;100.00;99860.22;5012648;28;20128;-69
2023/08/06 05:57:35;;;;;;;2.33;1.80;;;;;;;16.03;100.00;99868.72;5013489;28;20128;-70
2023/08/06 06:00:01;;;;;;;2.85;1.65;;;;;;;16.10;100.00;99866.69;5020051;28;20338;-69
2023/08/06 06:02:27;;;;;;;3.88;1.92;;;;;;;16.11;100.00;99863.16;5016380;28;20775;-70
2023/08/06 06:04:52;;;;;;;4.13;1.83;;;;;;;16.11;100.00;99874.44;5014282;28;20041;-70
2023/08/06 06:07:18;;;;;;;4.20;1.85;;;;;;;16.07;100.00;99875.50;5015110;28;20458;-70
2023/08/06 06:09:43;;;;;;;3.42;1.65;;;;;;;16.10;100.00;99871.91;5009327;28;20041;-69
2023/08/06 06:12:08;;;;;;;5.38;1.85;;;;;;;16.11;100.00;99874.44;4997593;28;20494;-69
2023/08/06 06:14:33;;;;;;;3.28;1.60;;;;;;;16.12;100.00;99881.34;5013561;28;20656;-70
2023/08/06 06:17:00;;;;;;;4.13;1.65;;;;;;;16.15;100.00;99888.16;5016111;28;20033;-70
2023/08/06 06:19:25;;;;;;;2.97;1.63;;;;;;;16.15;100.00;99889.00;5013147;28;20080;-70
2023/08/06 06:21:51;;;;;;;3.40;1.55;;;;;;;16.15;100.00;99885.56;5017483;28;20594;-70
2023/08/06 06:24:16;;;;;;;2.78;1.77;;;;;;;16.18;100.00;99888.03;5015855;28;20036;-71
2023/08/06 06:26:41;;;;;;;3.38;1.50;;;;;;;16.21;100.00;99888.75;5014488;28;20798;-70
2023/08/06 06:29:06;;;;;;;5.38;2.08;;;;;;;16.25;100.00;99889.44;5012850;28;20040;-70
2023/08/06 06:31:32;;;;;;;3.88;2.15;;;;;;;16.29;100.00;99891.84;5014699;28;20048;-68
2023/08/06 06:33:57;;;;;;;3.08;1.80;;;;;;;16.36;100.00;99889.81;5017782;28;20055;-67
2023/08/06 06:36:23;;;;;;;2.53;1.40;;;;;;;16.40;100.00;99896.59;5015294;28;20133;-67
2023/08/06 06:38:49;;;;;;;2.47;1.50;;;;;;;16.40;100.00;99904.41;5020762;28;20034;-67
2023/08/06 06:41:14;;;;;;;3.15;1.50;;;;;;;16.41;100.00;99902.66;5023012;28;20044;-66
2023/08/06 06:43:40;;;;;;;2.28;1.20;;;;;;;16.40;100.00;99896.59;5019891;28;20752;-66
2023/08/06 06:46:05;;;;;;;5.45;1.20;;;;;;;16.32;100.00;99899.53;5012607;28;20053;-67
2023/08/06 06:48:32;;;;;;;4.03;1.20;;;;;;;16.33;100.00;99895.16;5012267;28;21940;-67
2023/08/06 06:50:59;;;;;;;1.83;0.75;;;;;;;16.36;100.00;99900.22;5013053;28;20045;-67
2023/08/06 06:53:27;;;;;;;3.22;1.20;;;;;;;16.35;100.00;99902.94;5012560;28;20026;-67
2023/08/06 06:55:56;;;;;;;1.63;1.00;;;;;;;16.49;100.00;99911.81;5016003;28;20029;-67
2023/08/06 06:58:22;;;;;;;2.85;1.30;;;;;;;16.64;100.00;99905.88;5010965;28;20049;-67
2023/08/06 07:00:48;;;;;;;3.10;1.30;;;;;;;16.68;100.00;99904.81;5001915;28;20052;-67
2023/08/06 07:03:14;;;;;;;2.10;1.30;;;;;;;16.76;100.00;99907.06;5017340;28;20498;-68
2023/08/06 07:05:40;;;;;;;2.28;1.50;;;;;;;16.86;100.00;99903.13;5016306;28;20037;-67
2023/08/06 07:08:05;;;;;;;1.75;1.08;;;;;;;16.99;100.00;99903.38;5018254;28;20044;-67
2023/08/06 07:10:33;;;;;;;2.30;1.48;;;;;;;17.11;100.00;99910.63;5017345;28;20092;-67
2023/08/06 07:12:59;;;;;;;1.75;1.20;;;;;;;17.11;100.00;99902.78;5015301;28;20042;-67
2023/08/06 07:15:24;;;;;;;1.27;1.00;;;;;;;17.32;100.00;99917.44;5014973;28;20056;-67
2023/08/06 07:17:49;;;;;;;1.83;1.05;;;;;;;17.32;100.00;99915.66;5018805;28;20719;-67
2023/08/06 07:20:15;;;;;;;1.45;0.98;;;;;;;17.40;100.00;99912.66;5015852;28;20044;-67
2023/08/06 07:22:40;;;;;;;2.30;0.98;;;;;;;17.35;100.00;99919.88;5013738;28;20800;-67
2023/08/06 07:25:05;;;;;;;3.42;1.33;;;;;;;17.26;100.00;99918.56;5022708;28;20127;-67
2023/08/06 07:27:32;;;;;;;2.28;0.98;;;;;;;17.27;100.00;99924.66;5017278;28;20041;-67
2023/08/06 07:29:58;;;;;;;2.28;1.23;;;;;;;17.23;99.63;99921.34;5020365;28;20045;-66
2023/08/06 07:32:23;;;;;;;2.22;1.30;;;;;;;17.31;99.77;99926.16;5016770;28;20033;-66
2023/08/06 07:34:49;;;;;;;3.65;1.60;;;;;;;17.34;98.68;99923.41;5019983;28;20042;-67
2023/08/06 07:37:14;;;;;;;2.88;1.23;;;;;;;17.42;97.83;99929.94;5018044;28;20441;-67
2023/08/06 07:39:41;;;;;;;2.90;1.75;;;;;;;17.62;97.35;99923.75;5021814;28;20032;-67
2023/08/06 07:42:07;;;;;;;2.45;1.40;;;;;;;17.69;95.07;99925.09;5002210;28;20387;-67
2023/08/06 07:44:32;;;;;;;2.08;1.30;;;;;;;17.85;95.31;99928.66;5024158;28;20045;-67
2023/08/06 07:46:57;;;;;;;3.25;1.25;;;;;;;17.94;94.38;99919.50;5020885;28;20037;-67
2023/08/06 07:49:23;;;;;;;2.13;1.27;;;;;;;17.89;93.13;99922.38;5013152;28;20484;-67
2023/08/06 07:51:48;;;;;;;3.08;1.80;;;;;;;17.90;95.14;99933.66;5017665;28;20125;-66
2023/08/06 07:54:14;;;;;;;4.85;1.92;;;;;;;17.88;94.90;99927.66;5011054;28;20117;-66
2023/08/06 07:56:39;;;;;;;1.75;1.50;;;;;;;17.78;92.61;99927.25;5018652;28;20037;-67
2023/08/06 07:59:04;;;;;;;3.75;1.67;;;;;;;17.83;94.02;99937.47;5020071;28;20139;-65
2023/08/06 08:01:30;;;;;;;6.68;1.90;;;;;;;17.79;92.22;99933.31;5015431;28;20029;-66
2023/08/06 08:03:55;;;;;;;3.53;1.42;;;;;;;17.74;92.28;99932.72;5018318;28;20049;-66
2023/08/06 08:06:20;;;;;;;3.47;1.50;;;;;;;17.70;92.84;99928.56;5016449;28;20775;-66
2023/08/06 08:08:46;;;;;;;3.22;1.75;;;;;;;17.55;93.55;99934.56;5002668;28;20067;-66
2023/08/06 08:11:11;;;;;;;3.03;1.77;;;;;;;17.62;94.24;99943.78;4998900;28;20223;-66
2023/08/06 08:13:37;;;;;;;6.22;2.25;;;;;;;17.62;94.64;99943.78;5016038;28;20086;-66
2023/08/06 08:16:02;;;;;;;3.75;1.92;;;;;;;17.72;95.99;99943.25;5024403;28;20128;-66
2023/08/06 08:18:28;;;;;;;3.03;1.63;;;;;;;17.75;95.47;99940.47;5016059;28;20058;-66
2023/08/06 08:20:53;;;;;;;5.13;2.47;;;;;;;17.76;95.50;99942.19;5022136;28;20044;-66
2023/08/06 08:23:18;;;;;;;4.00;2.10;;;;;;;17.71;94.55;99941.56;5016495;28;20045;-66
2023/08/06 08:25:44;;;;;;;2.60;1.98;;;;;;;17.60;92.72;99938.63;5019554;28;20041;-66
2023/08/06 08:28:09;;;;;;;3.80;1.85;;;;;;;17.60;94.07;99941.25;5015064;28;20057;-66
2023/08/06 08:30:34;;;;;;;4.28;2.10;;;;;;;17.55;93.83;99939.78;5003705;28;20045;-67
2023/08/06 08:33:00;;;;;;;2.67;2.13;;;;;;;17.53;94.55;99949.47;5018192;28;20041;-66
2023/08/06 08:35:25;;;;;;;3.28;2.35;;;;;;;17.50;95.10;99949.63;5012306;28;20037;-66
2023/08/06 08:37:51;;;;;;;2.78;2.58;;;;;;;17.50;96.53;99942.66;5015801;28;20072;-66
2023/08/06 08:40:17;;;;;;;2.75;2.13;;;;;;;17.41;96.55;99950.94;5016099;28;20403;-66
2023/08/06 08:42:43;;;;;;;2.97;1.75;;;;;;;17.43;96.72;99952.53;5014945;28;20038;-66
2023/08/06 08:45:14;;;;;;;4.63;2.75;;;;;;;17.31;96.54;99949.69;5007817;28;20150;-66
2023/08/06 08:47:43;;;;;;;2.53;2.15;;;;;;;17.31;97.27;99949.69;5014780;28;20052;-66
2023/08/06 08:50:10;;;;;;;3.30;1.95;;;;;;;17.30;97.40;99948.84;5016539;28;20131;-66
2023/08/06 08:52:38;;;;;;;3.30;2.28;;;;;;;17.28;97.72;99955.06;5016625;28;20032;-66
2023/08/06 08:55:04;;;;;;;3.58;1.80;;;;;;;17.18;96.38;99959.91;5018404;28;20076;-66
2023/08/06 08:57:29;;;;;;;4.70;1.85;;;;;;;17.23;96.25;99955.28;5010815;28;20144;-66
2023/08/06 08:59:55;;;;;;;3.17;1.70;;;;;;;17.28;96.16;99955.06;5009175;28;20034;-66
2023/08/06 09:02:23;;;;;;;2.63;1.70;;;;;;;17.33;95.79;99959.13;5009338;28;20102;-66
2023/08/06 09:04:49;;;;;;;2.17;1.65;;;;;;;17.55;96.73;99955.47;5014276;28;20040;-66
2023/08/06 09:07:19;;;;;;;1.73;1.63;;;;;;;17.87;94.95;99955.56;5007337;28;20121;-66
2023/08/06 09:09:48;;;;;;;1.50;1.40;;;;;;;18.21;92.58;99959.91;5013792;28;20045;-66
2023/08/06 09:12:17;;;;;;;1.58;1.10;;;;;;;18.26;90.83;99963.13;5015020;28;20127;-66
2023/08/06 09:14:43;;;;;;;1.45;1.23;;;;;;;18.24;90.98;99967.59;5014236;28;20045;-65
2023/08/06 09:17:10;;;;;;;1.30;0.98;;;;;;;18.13;91.05;99962.09;4995372;28;20818;-65
2023/08/06 09:19:36;;;;;;;1.33;0.90;;;;;;;18.06;91.86;99973.78;5005582;28;20029;-66
2023/08/06 09:22:02;;;;;;;1.88;1.00;;;;;;;18.05;91.88;99966.03;5016309;28;20133;-66
2023/08/06 09:24:27;;;;;;;1.10;0.95;;;;;;;18.08;93.18;99969.31;5016323;28;20128;-65
2023/08/06 09:26:54;;;;;;;1.85;0.90;;;;;;;18.17;91.84;99960.13;5018330;28;20200;-65
2023/08/06 09:29:19;;;;;;;0.50;0.50;;;;;;;18.10;91.13;99970.09;5015853;28;20556;-66
2023/08/06 09:31:50;;;;;;;0.43;0.40;;;;;;;18.08;92.15;99977.16;5014696;28;20029;-66
2023/08/06 09:34:22;;;;;;;0.30;0.20;;;;;;;17.91;91.79;99985.03;5015486;28;21679;-66
2023/08/06 09:36:53;;;;;;;0.63;0.20;;;;;;;17.66;92.53;99987.16;5025785;28;20036;-66
2023/08/06 09:39:21;;;;;;;1.92;0.30;;;;;;;17.52;94.30;99990.44;5014770;28;20032;-65
2023/08/06 09:41:49;;;;;;;0.82;0.20;;;;;;;17.45;94.95;99993.44;5025872;28;20041;-66
2023/08/06 09:44:19;;;;;;;1.40;0.20;;;;;;;17.34;94.92;99996.56;5010293;28;20033;-65
2023/08/06 09:46:55;;;;;;;0.68;0.20;;;;;;;17.26;95.02;99999.53;5014838;28;20044;-66
2023/08/06 09:49:26;;;;;;;1.08;0.30;;;;;;;17.16;96.63;100011.34;5015160;28;20882;-66
2023/08/06 09:51:55;;;;;;;0.50;0.40;;;;;;;17.24;98.59;100011.00;5014746;28;20344;-66
2023/08/06 09:54:23;;;;;;;3.10;0.60;;;;;;;17.21;100.00;100014.59;5019156;28;20045;-64
2023/08/06 09:56:48;;;;;;;2.13;0.30;;;;;;;16.95;100.00;100017.56;5011043;28;20065;-64
2023/08/06 09:59:15;;;;;;;0.45;0.30;;;;;;;16.73;100.00;100022.03;5015168;28;20607;-64
2023/08/06 10:01:41;;;;;;;0.65;0.50;;;;;;;16.54;100.00;100031.59;5024272;28;20501;-64
2023/08/06 10:04:12;;;;;;;0.98;0.40;;;;;;;16.23;100.00;100038.19;5020697;28;20049;-64
2023/08/06 10:06:38;;;;;;;0.35;0.35;;;;;;;16.09;100.00;100050.94;5018968;28;20033;-64
2023/08/06 10:09:04;;;;;;;1.30;0.32;;;;;;;15.92;100.00;100060.38;5018341;28;20049;-64
2023/08/06 10:11:30;;;;;;;0.22;0.20;;;;;;;15.66;100.00;100061.44;5018803;28;20041;-64
2023/08/06 10:14:08;;;;;;;0.28;0.22;;;;;;;15.49;100.00;100059.47;5019711;28;20021;-67
2023/08/06 10:16:34;;;;;;;1.77;0.30;;;;;;;15.25;100.00;100072.59;4997411;28;20041;-64
2023/08/06 10:19:01;;;;;;;2.53;0.80;;;;;;;15.14;100.00;100086.00;5014237;28;20038;-66
2023/08/06 10:21:30;;;;;;;1.63;0.90;;;;;;;15.03;100.00;100091.63;5011880;28;20037;-65
2023/08/06 10:23:56;;;;;;;1.77;0.55;;;;;;;14.92;100.00;100087.72;4996533;28;20819;-66
2023/08/06 10:26:26;;;;;;;2.50;0.60;;;;;;;14.81;100.00;100103.72;5018918;28;20194;-66
2023/08/06 10:28:52;;;;;;;1.27;0.77;;;;;;;14.69;100.00;100103.31;5019732;28;20065;-66
2023/08/06 10:31:18;;;;;;;3.05;1.30;;;;;;;14.57;100.00;100113.25;5012844;28;20043;-66
2023/08/06 10:33:47;;;;;;;4.55;1.70;;;;;;;14.51;100.00;100125.63;5012471;28;20080;-66
2023/08/06 10:36:14;;;;;;;5.78;1.80;;;;;;;14.45;100.00;100112.84;5002305;28;20045;-66
2023/08/06 10:38:47;;;;;;;3.72;1.42;;;;;;;14.40;100.00;100110.38;5010012;28;20125;-67
2023/08/06 10:41:24;;;;;;;3.42;2.00;;;;;;;14.46;100.00;100122.31;5009376;28;20720;-69
2023/08/06 10:43:49;;;;;;;5.55;2.80;;;;;;;14.54;100.00;100121.16;5013549;28;20030;-67
2023/08/06 10:46:28;;;;;;;3.78;2.53;;;;;;;14.52;100.00;100132.50;5017671;28;20103;-67
2023/08/06 10:48:54;;;;;;;4.22;2.30;;;;;;;14.56;100.00;100141.91;4996001;28;20498;-67
2023/08/06 10:51:19;;;;;;;6.20;2.63;;;;;;;14.53;100.00;100142.03;5012382;28;20048;-64
2023/08/06 10:53:46;;;;;;;7.38;2.30;;;;;;;14.46;100.00;100136.16;5014216;28;20041;-69
2023/08/06 10:56:22;;;;;;;9.57;2.70;;;;;;;14.41;100.00;100145.88;5018864;28;20041;-68
2023/08/06 10:58:48;;;;;;;4.70;2.30;;;;;;;14.43;100.00;100151.88;5021147;28;20038;-67
2023/08/06 11:01:14;;;;;;;3.97;2.05;;;;;;;14.46;100.00;100146.56;5020990;28;20048;-70
2023/08/06 11:03:41;;;;;;;4.05;1.98;;;;;;;14.52;100.00;100156.78;5011936;28;20414;-67
2023/08/06 11:06:10;;;;;;;5.85;1.88;;;;;;;14.49;100.00;100169.88;5018975;28;20068;-67
2023/08/06 11:08:47;;;;;;;5.13;2.15;;;;;;;14.44;100.00;100174.38;5016316;28;20324;-68
2023/08/06 11:11:15;;;;;;;4.55;2.50;;;;;;;14.54;100.00;100177.53;5024195;28;20056;-68
2023/08/06 11:13:46;;;;;;;5.32;2.08;;;;;;;14.44;100.00;100184.78;5020264;28;20046;-66
2023/08/06 11:16:12;;;;;;;8.48;2.22;;;;;;;14.49;100.00;100184.63;5016868;28;20120;-68
2023/08/06 11:18:37;;;;;;;6.90;1.88;;;;;;;14.50;100.00;100175.94;5027102;28;20121;-68
2023/08/06 11:21:03;;;;;;;9.43;2.15;;;;;;;14.45;100.00;100191.69;5019470;28;20045;-65
2023/08/06 11:23:31;;;;;;;7.78;1.73;;;;;;;14.49;100.00;100182.03;5017052;28;20037;-67